Poneto, Indiana
Current Conditions -  °F | °C
As of 11:54 AM on Thursday 30 Oct 2014 (Local Time) from KFWA Reporting Station
Overcast Overcast  
Wind Chill: 43°   Ceiling: 4000
Heat Index: 46°   Visibility: 10mi
Dew Point: 37°   Wind: 6mph
Humidity: 71%   Direction: 250°WSW
Pressure: 30.17"   Gusts: NA
Location:  40.66°N, 85.22°W
Report Text: KFWA 301554Z 25005KT 10SM FEW030 OVC040 08/03 A3017 RMK AO2 SLP220 T00780028
Loading
Personal Weather Stations






























Interactive Weather Map
Tropical Storm Tracking
New forecast layout! Learn more

10-Day Weather Forecast

Advertisements
Track Severe Weather on mobile